Alyeska Resort
Hourly Weather - Mid Mountian Site
ALY_MID_HR 2/26/2017
CLICK TO VIEW GRAPH!!

        DATE  TIME   Air   H2o   H2o   New  Snow  BATT   Rel
                    Temp  Inch Since  Snow Depth  Volt  Hum%
                      F   1HR  0600   1HR         AVG   AVG

   2/26/2017 19:00    27  0.00  0.00  -0.2 60.57 13.44    89
   2/26/2017 18:00    29  0.00  0.00  -0.3 60.77 13.42    86
   2/26/2017 17:00    31  0.00  0.00  -0.4179.40 13.41    83
   2/26/2017 16:00    34  0.00  0.00  -0.4150.90 13.42    71
   2/26/2017 15:00    35  0.00  0.00  -0.4 60.55 13.45    68
   2/26/2017 14:00    32  0.00  0.00  -0.5 60.55 13.49    70
   2/26/2017 13:00    27  0.00  0.00  -0.3165.60 13.52    84
   2/26/2017 12:00    26  0.00  0.00  -0.1165.60 13.53    88
   2/26/2017 11:00    25  0.00  0.00  -0.3178.80 13.52    91
   2/26/2017 10:00    25  0.00  0.00  -0.2 61.58 13.51    89
   2/26/2017 09:00    25  0.00  0.00  -0.2 60.98 13.50    89
   2/26/2017 08:00    26  0.00  0.00  -0.3 61.08 13.49    86
   2/26/2017 07:00    27  0.00  0.00  -0.3 61.22 13.49    82
   2/26/2017 06:00    28  0.00  0.00  -0.3 61.20 13.48    78
   2/26/2017 05:00    28  0.00  0.00  -0.3 61.39 13.48    77
   2/26/2017 04:00    30  0.00  0.00  -0.3 61.39 13.48    72
   2/26/2017 03:00    29  0.00  0.00  -0.3 61.57 13.48    72
   2/26/2017 02:00    29  0.00  0.00  -0.3 61.65 13.49    71
   2/26/2017 01:00    28  0.00  0.00  -0.3 61.72 13.49    72
   2/25/2017 24:00    28  0.00  0.00  -0.3 61.71 13.49    72
   2/25/2017 23:00    27  0.00  0.00  -0.3 61.75 13.50    72
   2/25/2017 22:00    26  0.00  0.00  -0.3 61.83 13.50    78
   2/25/2017 21:00    26  0.00  0.00  -0.2 61.84 13.50    80
   2/25/2017 20:00    26  0.00  0.00  -0.3 61.86 13.49    82


CLICK TO VIEW GRAPH!!